Nearby METAR Reports

 

KGLD - Renner Field Goodland, Kansas, USA
Distance from station: W 39mi, 59km
Updated: Sun, 14-Jul-2024 4:53am CDT
Clear
Clear
 Wind from WNW
Wind: WNW 8 mph, 13 km/h
Temperature: 63°F, 17°C
Dew Point: 59°F, 15°C
Humidity: 88%
Barometer: 30.07 inHg, 1018.3 hPa
Clouds: Clear
Visibility: 10 miles, 16 km
2024/07/14 09:53 KGLD 140953Z AUTO 30007KT 10SM CLR 17/15 A3007 RMK AO2 SLP129 T01720150 $
KCBK - Colby Municipal Airport Colby, Kansas, USA
Distance from station: N 2mi, 3km
Updated: Sun, 14-Jul-2024 5:55am CDT
Clear
Clear
 Wind from NW
Wind: NW 9 mph, 15 km/h
Temperature: 68°F, 20°C
Dew Point: 61°F, 16°C
Humidity: 78%
Barometer: 30.03 inHg, 1016.9 hPa
Clouds: Clear
Visibility: 10 miles, 16 km
2024/07/14 10:55 KCBK 141055Z AUTO 31008KT 10SM CLR 20/16 A3003 RMK AO2 T01950164
 
KMCK - Ben Nelson Regional Airport McCook, Nebraska, USA
Distance from station: NW 61mi, 98km
Updated: Sun, 14-Jul-2024 5:53am CDT
Clear
Clear
 Wind from WNW
Wind: WNW 3 mph, 6 km/h
Temperature: 64°F, 18°C
Dew Point: 64°F, 18°C
Humidity: 100%
Barometer: 29.99 inHg, 1015.6 hPa
Clouds: Clear
Visibility: 8 miles, 13 km
2024/07/14 10:53 KMCK 141053Z AUTO 29003KT 8SM CLR 18/18 A2999 RMK AO2 SLP126 T01780178
KHLC - Hill City Municipal Airport Hill City, Kansas, USA
Distance from station: E 65mi, 104km
Updated: Sun, 14-Jul-2024 5:53am CDT
Clear
Clear
 Wind from W
Wind: W 10 mph, 17 km/h
Temperature: 70°F, 21°C
Barometer: 29.97 inHg, 1014.9 hPa
Clouds: Clear
Visibility: 10 miles, 16 km
2024/07/14 10:53 KHLC 141053Z AUTO 27009KT 10SM CLR 21/ A2997 RMK AO2 SLP116 T0206 $
 
KHYS - Hays Regional Airport Hays, Kansas, USA
Distance from station: E 103mi, 166km
Updated: Sun, 14-Jul-2024 5:56am CDT
Clear
Clear
 Wind from S
Wind: S 9 mph, 15 km/h
Temperature: 72°F, 22°C
Dew Point: 61°F, 16°C
Humidity: 69%
Barometer: 29.96 inHg, 1014.6 hPa
Clouds: Clear
Visibility: 10 miles, 16 km
2024/07/14 10:56 KHYS 141056Z AUTO 17008KT 10SM CLR 22/16 A2996 RMK AO2 SLP122 T02170161
KITR - Kit Carson County Airport Burlington, Colorado, USA
Distance from station: W 105mi, 34km
Updated: Sun, 14-Jul-2024 5:53am CDT
Clear
Clear
 Wind from WNW
Wind: WNW 10 mph, 17 km/h
Temperature: 63°F, 17°C
Barometer: 30.12 inHg, 1020 hPa
Clouds: Clear
Visibility: 10 miles, 16 km
2024/07/14 10:53 KITR 141053Z AUTO 29009KT 10SM CLR 17/ A3012 RMK AO2 SLP134 T0167 $
 
KSFO - Limon Municipal Airport, Colorado, USA
Distance from station: W 142mi, 227km
Updated: Sun, 14-Jul-2024 5:56am CDT
Mostly cloudy
Mostly cloudy
 Wind from NW
Wind: NW 5 mph, 7 km/h
Temperature: 55°F, 13°C
Dew Point: 54°F, 12°C
Humidity: 94%
Barometer: 29.98 inHg, 1015.2 hPa
Clouds: Mostly cloudy
Visibility: 10 miles, 16 km
Cloud details: Few Clouds 700 ft
Mostly cloudy 20000 ft
2024/07/14 10:56 KSFO 141056Z 31004KT 10SM FEW007 BKN200 13/12 A2998 RMK AO2 SLP150 T01330122
KBKF - Buckley Air Force Base Aurora, Colorado, USA
Distance from station: W 182mi, 293km
Updated: Sun, 14-Jul-2024 5:58am CDT
Few Clouds
Few Clouds
 Wind from WSW
Wind: WSW 7 mph, 11 km/h
Temperature: 68°F, 20°C
Dew Point: 41°F, 5°C
Humidity: 38%
Barometer: 30.23 inHg, 1023.7 hPa
Clouds: Few Clouds
Visibility: 10 miles, 16 km
Cloud details: Few Clouds 16000 ft
2024/07/14 10:58 KBKF 141058Z 24006KT 10SM FEW160 20/05 A3023 RMK AO2A SLP135 T02010053